createdAt,value
2018-03-01T00:00:23.271Z,17.63
2018-03-01T00:02:50.792Z,11.63
2018-03-01T00:05:18.340Z,15.63
2018-03-01T00:07:45.864Z,10.50
2018-03-01T00:10:13.403Z,14.47
2018-03-01T00:12:41.308Z,15.93
2018-03-01T00:15:08.844Z,24.83
2018-03-01T00:17:36.747Z,14.20
2018-03-01T00:20:04.283Z,17.33
2018-03-01T00:22:36.810Z,12.87
2018-03-01T00:25:04.334Z,12.97
2018-03-01T00:27:31.880Z,12.37
2018-03-01T00:29:59.427Z,13.40
2018-03-01T00:32:26.938Z,17.27
2018-03-01T00:34:54.458Z,11.57
2018-03-01T00:37:21.999Z,12.13
2018-03-01T00:39:49.527Z,10.97
2018-03-01T00:42:17.083Z,11.00
2018-03-01T00:44:44.608Z,15.73
2018-03-01T00:47:12.139Z,12.13
2018-03-01T00:49:39.652Z,9.33
2018-03-01T00:52:07.179Z,16.57
2018-03-01T00:54:34.686Z,8.20
2018-03-01T00:57:02.608Z,13.73
2018-03-01T00:59:30.219Z,15.47
2018-03-01T01:01:58.161Z,17.97
2018-03-01T01:04:25.672Z,10.13
2018-03-01T01:06:53.208Z,14.07
2018-03-01T01:09:21.124Z,15.57
2018-03-01T01:11:48.654Z,13.63
2018-03-01T01:14:16.171Z,12.87
2018-03-01T01:16:44.109Z,11.30
2018-03-01T01:19:11.618Z,15.70
2018-03-01T01:21:39.160Z,16.30
2018-03-01T01:24:06.697Z,12.87
2018-03-01T01:26:34.250Z,9.43
2018-03-01T01:29:01.872Z,13.67
2018-03-01T01:31:29.400Z,11.00
2018-03-01T01:33:57.336Z,14.00
2018-03-01T01:36:24.868Z,17.00
2018-03-01T01:38:52.399Z,10.83
2018-03-01T01:41:19.919Z,11.83
2018-03-01T01:43:47.855Z,14.77
2018-03-01T01:46:15.385Z,16.00
2018-03-01T01:48:42.916Z,14.00
2018-03-01T01:51:10.831Z,13.03
2018-03-01T01:53:38.376Z,10.40
2018-03-01T01:56:05.889Z,18.67
2018-03-01T01:58:33.422Z,13.30
2018-03-01T02:01:00.932Z,11.13
2018-03-01T02:03:28.468Z,14.23
2018-03-01T02:05:56.383Z,8.90
2018-03-01T02:08:23.932Z,18.47
2018-03-01T02:10:51.594Z,11.20
2018-03-01T02:13:19.114Z,16.27
2018-03-01T02:15:47.051Z,15.00
2018-03-01T02:18:14.595Z,14.83
2018-03-01T02:20:42.130Z,15.40
2018-03-01T02:23:09.662Z,16.93
2018-03-01T02:25:37.596Z,12.47
2018-03-01T02:28:05.120Z,16.17
2018-03-01T02:30:32.648Z,18.20
2018-03-01T02:33:00.571Z,21.63
2018-03-01T02:35:28.104Z,14.73
2018-03-01T02:37:55.630Z,11.80
2018-03-01T02:40:23.572Z,12.20
2018-03-01T02:42:51.117Z,19.97
2018-03-01T02:45:18.659Z,14.73
2018-03-01T02:47:46.183Z,15.77
2018-03-01T02:50:13.743Z,15.90
2018-03-01T02:52:41.264Z,18.73
2018-03-01T02:55:08.785Z,16.60
2018-03-01T02:57:36.343Z,18.17
2018-03-01T03:00:03.867Z,13.73
2018-03-01T03:02:31.808Z,11.33
2018-03-01T03:04:59.435Z,14.57
2018-03-01T03:07:26.969Z,17.83
2018-03-01T03:09:54.487Z,13.13
2018-03-01T03:12:22.023Z,18.00
2018-03-01T03:14:49.540Z,16.77
2018-03-01T03:17:17.083Z,17.00
2018-03-01T03:19:44.999Z,13.10
2018-03-01T03:22:12.535Z,19.77
2018-03-01T03:24:40.055Z,16.33
2018-03-01T03:27:07.983Z,14.57
2018-03-01T03:29:35.504Z,12.20
2018-03-01T03:32:03.016Z,20.47
2018-03-01T03:34:30.540Z,16.37
2018-03-01T03:36:58.052Z,19.20
2018-03-01T03:39:25.992Z,21.00
2018-03-01T03:41:53.909Z,21.40
2018-03-01T03:44:21.466Z,15.60
2018-03-01T03:46:48.974Z,13.57
2018-03-01T03:49:16.507Z,18.00
2018-03-01T03:51:44.053Z,21.67
2018-03-01T03:54:11.600Z,20.50
2018-03-01T03:56:39.115Z,16.27
2018-03-01T03:59:06.672Z,17.50
2018-03-01T04:01:34.198Z,16.87
2018-03-01T04:04:16.914Z,15.83
2018-03-01T04:06:44.432Z,22.40
2018-03-01T04:09:12.420Z,23.37
2018-03-01T04:11:39.968Z,12.70
2018-03-01T04:14:07.489Z,13.37
2018-03-01T04:16:35.101Z,21.37
2018-03-01T04:19:02.718Z,17.13
2018-03-01T04:21:30.660Z,18.77
2018-03-01T04:23:58.192Z,11.90
2018-03-01T04:26:25.756Z,22.27
2018-03-01T04:28:53.280Z,12.33
2018-03-01T04:31:21.212Z,16.03
2018-03-01T04:33:48.736Z,15.80
2018-03-01T04:36:16.259Z,15.07
2018-03-01T04:38:44.267Z,14.93
2018-03-01T04:41:11.787Z,20.50
2018-03-01T04:43:39.784Z,18.43
2018-03-01T04:46:07.287Z,14.60
2018-03-01T04:48:34.827Z,14.73
2018-03-01T04:51:02.482Z,16.53
2018-03-01T04:53:30.024Z,18.87
2018-03-01T04:55:57.545Z,16.23
2018-03-01T04:58:25.475Z,11.20
2018-03-01T05:00:52.991Z,15.20
2018-03-01T05:03:20.552Z,14.20
2018-03-01T05:05:48.063Z,13.93
2018-03-01T05:08:15.619Z,11.80
2018-03-01T05:10:43.224Z,14.60
2018-03-01T05:13:10.788Z,23.77
2018-03-01T05:15:38.331Z,26.60
2018-03-01T05:18:05.868Z,18.00
2018-03-01T05:20:33.795Z,18.77
2018-03-01T05:23:01.319Z,18.70
2018-03-01T05:25:28.861Z,15.67
2018-03-01T05:27:56.877Z,19.67
2018-03-01T05:30:24.417Z,17.80
2018-03-01T05:32:52.020Z,22.40
2018-03-01T05:35:19.567Z,18.73
2018-03-01T05:37:47.090Z,18.50
2018-03-01T05:40:14.699Z,19.10
2018-03-01T05:42:42.620Z,22.70
2018-03-01T05:45:10.153Z,18.70
2018-03-01T05:47:38.065Z,16.43
2018-03-01T05:50:05.643Z,16.40
2018-03-01T05:52:33.163Z,15.10
2018-03-01T05:55:00.699Z,16.03
2018-03-01T05:57:28.296Z,20.83
2018-03-01T05:59:55.823Z,24.47
2018-03-01T06:02:23.355Z,17.13
2018-03-01T06:04:50.917Z,22.73
2018-03-01T06:07:18.912Z,16.90
2018-03-01T06:09:46.440Z,22.30
2018-03-01T06:12:14.360Z,12.67
2018-03-01T06:14:41.868Z,17.87
2018-03-01T06:17:09.804Z,29.10
2018-03-01T06:19:37.318Z,18.80
2018-03-01T06:22:04.858Z,16.37
2018-03-01T06:24:32.436Z,17.53
2018-03-01T06:26:59.976Z,20.17
2018-03-01T06:29:27.505Z,13.53
2018-03-01T06:31:55.038Z,16.07
2018-03-01T06:34:22.551Z,22.10
2018-03-01T06:36:50.083Z,17.63
2018-03-01T06:39:17.586Z,26.80
2018-03-01T06:41:45.160Z,19.50
2018-03-01T06:44:12.688Z,18.70
2018-03-01T06:46:40.251Z,17.50
2018-03-01T06:49:07.822Z,14.03
2018-03-01T06:51:35.747Z,24.27
2018-03-01T06:54:03.664Z,20.63
2018-03-01T06:56:31.200Z,22.10
2018-03-01T06:58:58.758Z,18.87
2018-03-01T07:01:26.296Z,22.43
2018-03-01T07:03:54.252Z,20.07
2018-03-01T07:06:21.778Z,18.03
2018-03-01T07:08:49.322Z,18.87
2018-03-01T07:11:16.986Z,20.83
2018-03-01T07:13:44.524Z,25.80
2018-03-01T07:16:12.040Z,18.90
2018-03-01T07:18:39.586Z,25.57
2018-03-01T07:21:07.114Z,21.30
2018-03-01T07:23:34.663Z,17.90
2018-03-01T07:26:02.192Z,17.57
2018-03-01T07:28:30.130Z,25.97
2018-03-01T07:30:57.671Z,22.23
2018-03-01T07:33:25.208Z,12.70
2018-03-01T07:35:52.723Z,31.27
2018-03-01T07:38:20.737Z,25.17
2018-03-01T07:40:48.288Z,33.90
2018-03-01T07:43:16.568Z,21.70
2018-03-01T07:45:44.111Z,30.13
2018-03-01T07:48:11.632Z,29.87
2018-03-01T07:50:39.226Z,17.53
2018-03-01T07:53:06.747Z,18.13
2018-03-01T07:55:34.275Z,18.83
2018-03-01T07:58:01.816Z,18.33
2018-03-01T08:00:29.392Z,23.10
2018-03-01T08:02:56.906Z,19.03
2018-03-01T08:05:25.470Z,27.77
2018-03-01T08:07:53.152Z,17.23
2018-03-01T08:10:20.711Z,20.20
2018-03-01T08:12:48.644Z,28.07
2018-03-01T08:15:16.252Z,16.73
2018-03-01T08:17:43.780Z,22.80
2018-03-01T08:20:11.712Z,18.93
2018-03-01T08:22:39.633Z,18.73
2018-03-01T08:25:07.214Z,19.03
2018-03-01T08:27:34.768Z,19.23
2018-03-01T08:30:02.297Z,25.03
2018-03-01T08:32:30.228Z,20.30
2018-03-01T08:34:57.747Z,26.17
2018-03-01T08:37:25.355Z,26.57
2018-03-01T08:39:52.936Z,27.10
2018-03-01T08:42:20.880Z,16.57
2018-03-01T08:44:48.408Z,27.27
2018-03-01T08:47:15.954Z,32.83
2018-03-01T08:49:43.484Z,28.33
2018-03-01T08:52:11.480Z,22.50
2018-03-01T08:54:39.003Z,29.50
2018-03-01T08:57:06.553Z,23.13
2018-03-01T08:59:34.075Z,33.17
2018-03-01T09:02:01.598Z,13.63
2018-03-01T09:04:29.140Z,30.10
2018-03-01T09:06:57.056Z,26.37
2018-03-01T09:09:24.603Z,33.77
2018-03-01T09:11:52.131Z,29.50
2018-03-01T09:14:19.678Z,36.40
2018-03-01T09:16:47.690Z,34.27
2018-03-01T09:19:15.227Z,32.13
2018-03-01T09:21:42.747Z,29.27
2018-03-01T09:24:10.317Z,23.50
2018-03-01T09:26:38.221Z,29.20
2018-03-01T09:29:05.769Z,35.07
2018-03-01T09:31:33.340Z,31.33
2018-03-01T09:34:00.896Z,25.73
2018-03-01T09:36:28.453Z,23.77
2018-03-01T09:38:55.976Z,41.67
2018-03-01T09:41:23.906Z,19.33
2018-03-01T09:43:51.438Z,37.17
2018-03-01T09:46:18.996Z,29.53
2018-03-01T09:48:46.499Z,38.90
2018-03-01T09:51:14.060Z,32.93
2018-03-01T09:53:41.571Z,26.37
2018-03-01T09:56:09.124Z,33.80
2018-03-01T09:58:36.636Z,26.33
2018-03-01T10:01:04.168Z,25.43
2018-03-01T10:03:31.687Z,32.87
2018-03-01T10:05:59.212Z,36.77
2018-03-01T10:08:26.822Z,30.23
2018-03-01T10:10:54.486Z,27.83
2018-03-01T10:13:21.999Z,31.87
2018-03-01T10:15:49.923Z,34.70
2018-03-01T10:18:17.449Z,43.17
2018-03-01T10:20:44.989Z,32.93
2018-03-01T10:23:12.895Z,17.40
2018-03-01T10:25:40.427Z,35.70
2018-03-01T10:28:07.953Z,25.40
2018-03-01T10:30:35.873Z,31.30
2018-03-01T10:33:03.426Z,25.13
2018-03-01T10:35:30.941Z,25.03
2018-03-01T10:37:58.956Z,30.77
2018-03-01T10:40:26.469Z,20.70
2018-03-01T10:42:54.412Z,34.97
2018-03-01T10:45:21.917Z,33.10
2018-03-01T10:47:49.461Z,26.40
2018-03-01T10:50:17.371Z,37.47
2018-03-01T10:52:44.902Z,22.20
2018-03-01T10:55:12.496Z,33.20
2018-03-01T10:57:40.021Z,17.57
2018-03-01T11:00:07.541Z,20.47
2018-03-01T11:02:35.163Z,30.07
2018-03-01T11:05:02.682Z,25.87
2018-03-01T11:07:30.623Z,32.10
2018-03-01T11:09:58.143Z,19.77
2018-03-01T11:12:28.839Z,29.83
2018-03-01T11:14:56.743Z,28.10
2018-03-01T11:17:24.249Z,23.60
2018-03-01T11:19:51.805Z,30.50
2018-03-01T11:22:19.326Z,26.00
2018-03-01T11:24:46.850Z,30.57
2018-03-01T11:27:14.358Z,24.33
2018-03-01T11:29:41.963Z,24.03
2018-03-01T11:32:09.477Z,27.83
2018-03-01T11:34:37.036Z,21.23
2018-03-01T11:37:04.544Z,26.50
2018-03-01T11:39:32.084Z,23.43
2018-03-01T11:42:00.088Z,19.00
2018-03-01T11:44:27.635Z,24.10
2018-03-01T11:46:55.167Z,18.70
2018-03-01T11:49:23.109Z,30.40
2018-03-01T11:51:50.623Z,24.20
2018-03-01T11:54:18.160Z,26.30
2018-03-01T11:56:46.062Z,26.50
2018-03-01T11:59:13.706Z,22.67
2018-03-01T12:01:41.233Z,23.07
2018-03-01T12:04:09.177Z,19.50
2018-03-01T12:06:36.712Z,21.33
2018-03-01T12:09:04.230Z,32.73
2018-03-01T12:11:31.814Z,20.73
2018-03-01T12:13:59.324Z,25.00
2018-03-01T12:16:27.265Z,29.57
2018-03-01T12:18:54.807Z,21.80
2018-03-01T12:21:22.346Z,20.10
2018-03-01T12:23:49.869Z,26.67
2018-03-01T12:26:17.807Z,20.97
2018-03-01T12:28:45.429Z,22.47
2018-03-01T12:31:13.028Z,27.63
2018-03-01T12:33:40.652Z,28.10
2018-03-01T12:36:08.214Z,25.90
2018-03-01T12:38:35.736Z,24.37
2018-03-01T12:41:03.659Z,20.80
2018-03-01T12:43:31.189Z,32.27
2018-03-01T12:45:58.757Z,27.50
2018-03-01T12:48:26.649Z,17.63
2018-03-01T12:50:54.155Z,28.03
2018-03-01T12:53:22.147Z,24.17
2018-03-01T12:55:49.701Z,22.07
2018-03-01T12:58:17.244Z,25.50
2018-03-01T13:00:44.780Z,29.53
2018-03-01T13:03:12.732Z,24.40
2018-03-01T13:05:40.250Z,24.10
2018-03-01T13:08:07.787Z,26.87
2018-03-01T13:10:35.303Z,36.33
2018-03-01T13:13:02.841Z,27.07
2018-03-01T13:15:30.372Z,26.43
2018-03-01T13:17:57.919Z,31.10
2018-03-01T13:20:25.444Z,21.80
2018-03-01T13:22:52.964Z,22.33
2018-03-01T13:25:20.496Z,33.87
2018-03-01T13:27:48.009Z,21.67
2018-03-01T13:30:21.276Z,25.73
2018-03-01T13:35:52.595Z,27.27
2018-03-01T13:38:20.504Z,27.43
2018-03-01T13:40:48.051Z,25.27
2018-03-01T13:43:16.057Z,18.67
2018-03-01T13:45:43.647Z,25.73
2018-03-01T13:48:11.559Z,31.20
2018-03-01T13:50:39.107Z,25.87
2018-03-01T13:53:06.631Z,27.97
2018-03-01T13:55:34.569Z,23.80
2018-03-01T13:58:02.095Z,25.40
2018-03-01T14:00:29.627Z,29.27
2018-03-01T14:02:57.139Z,23.67
2018-03-01T14:05:24.672Z,25.60
2018-03-01T14:08:01.579Z,36.83
2018-03-01T14:10:29.143Z,25.60
2018-03-01T14:13:00.388Z,21.63
2018-03-01T14:15:27.924Z,23.67
2018-03-01T14:18:01.144Z,28.67
2018-03-01T14:20:29.077Z,27.70
2018-03-01T14:23:00.452Z,34.07
2018-03-01T14:25:30.827Z,25.67
2018-03-01T14:27:59.936Z,35.30
2018-03-01T14:30:29.000Z,25.77
2018-03-01T14:32:56.559Z,21.67
2018-03-01T14:38:46.628Z,27.37
2018-03-01T14:41:14.172Z,27.10
2018-03-01T14:43:41.700Z,26.07
2018-03-01T14:46:09.358Z,27.33
2018-03-01T14:48:36.888Z,31.47
2018-03-01T14:51:05.060Z,22.87
2018-03-01T14:53:32.965Z,27.97
2018-03-01T14:56:00.517Z,21.90
2018-03-01T14:58:28.061Z,22.97
2018-03-01T15:00:55.664Z,28.63
2018-03-01T15:03:23.200Z,22.50
2018-03-01T15:05:50.790Z,32.47
2018-03-01T15:08:18.356Z,23.07
2018-03-01T15:10:46.074Z,29.37
2018-03-01T15:13:13.608Z,23.47
2018-03-01T15:15:41.174Z,38.73
2018-03-01T15:18:08.728Z,26.40
2018-03-01T15:20:36.303Z,21.97
2018-03-01T15:23:03.844Z,34.97
2018-03-01T15:25:31.368Z,21.97
2018-03-01T15:27:58.911Z,23.20
2018-03-01T15:30:26.441Z,27.97
2018-03-01T15:32:53.975Z,38.30
2018-03-01T15:35:21.504Z,31.30
2018-03-01T15:37:49.111Z,39.77
2018-03-01T15:40:16.632Z,30.83
2018-03-01T15:42:45.028Z,35.43
2018-03-01T15:45:12.597Z,27.23
2018-03-01T15:47:40.102Z,34.20
2018-03-01T15:50:07.663Z,35.47
2018-03-01T15:52:35.167Z,27.37
2018-03-01T15:55:02.703Z,27.03
2018-03-01T15:57:30.630Z,31.53
2018-03-01T15:59:58.275Z,27.50
2018-03-01T16:02:25.796Z,33.93
2018-03-01T16:04:53.356Z,23.37
2018-03-01T16:07:21.747Z,38.80
2018-03-01T16:09:49.322Z,25.60
2018-03-01T16:12:16.848Z,30.03
2018-03-01T16:14:44.432Z,35.30
2018-03-01T16:17:11.976Z,27.33
2018-03-01T16:19:39.523Z,40.03
2018-03-01T16:22:07.454Z,29.83
2018-03-01T16:24:34.984Z,26.20
2018-03-01T16:27:02.496Z,30.97
2018-03-01T16:29:30.651Z,44.03
2018-03-01T16:31:58.192Z,26.30
2018-03-01T16:34:25.742Z,27.53
2018-03-01T16:36:53.351Z,36.23
2018-03-01T16:39:21.275Z,28.80
2018-03-01T16:41:48.820Z,25.50
2018-03-01T16:44:16.393Z,33.17
2018-03-01T16:46:43.935Z,27.37
2018-03-01T16:49:11.555Z,28.20
2018-03-01T16:51:39.480Z,34.10
2018-03-01T16:54:07.006Z,39.93
2018-03-01T16:56:34.567Z,29.77
2018-03-01T16:59:02.203Z,36.67
2018-03-01T17:01:29.723Z,29.87
2018-03-01T17:03:57.356Z,29.67
2018-03-01T17:06:24.878Z,30.80
2018-03-01T17:08:53.007Z,42.83
2018-03-01T17:11:20.516Z,29.30
2018-03-01T17:13:48.059Z,41.87
2018-03-01T17:16:15.987Z,27.37
2018-03-01T17:18:43.638Z,41.23
2018-03-01T17:21:11.159Z,24.67
2018-03-01T17:23:38.738Z,29.23
2018-03-01T17:26:06.324Z,29.93
2018-03-01T17:28:33.873Z,31.50
2018-03-01T17:31:01.406Z,29.67
2018-03-01T17:33:28.980Z,27.77
2018-03-01T17:35:56.528Z,37.07
2018-03-01T17:38:24.035Z,28.67
2018-03-01T17:40:51.569Z,44.70
2018-03-01T17:43:19.100Z,29.83
2018-03-01T17:45:46.639Z,30.87
2018-03-01T17:48:14.168Z,26.00
2018-03-01T17:54:03.432Z,25.00
2018-03-01T17:56:30.972Z,29.63
2018-03-01T17:58:58.488Z,32.50
2018-03-01T18:01:26.430Z,35.63
2018-03-01T18:03:54.365Z,32.10
2018-03-01T18:06:21.926Z,32.27
2018-03-01T18:08:49.436Z,32.67
2018-03-01T18:11:17.396Z,25.87
2018-03-01T18:13:45.315Z,38.33
2018-03-01T18:16:12.872Z,34.97
2018-03-01T18:18:40.399Z,28.53
2018-03-01T18:21:07.971Z,30.50
2018-03-01T18:23:35.499Z,33.37
2018-03-01T18:26:03.456Z,39.73
2018-03-01T18:28:31.027Z,29.50
2018-03-01T18:30:58.989Z,32.03
2018-03-01T18:33:26.903Z,31.30
2018-03-01T18:35:54.567Z,29.17
2018-03-01T18:38:22.100Z,27.13
2018-03-01T18:40:49.644Z,31.53
2018-03-01T18:43:17.552Z,37.43
2018-03-01T18:45:45.199Z,27.80
2018-03-01T18:48:12.732Z,33.13
2018-03-01T18:50:40.715Z,31.30
2018-03-01T18:53:08.250Z,31.50
2018-03-01T18:55:36.194Z,32.47
2018-03-01T18:58:03.744Z,43.33
2018-03-01T19:00:31.373Z,34.00
2018-03-01T19:02:58.929Z,40.70
2018-03-01T19:05:26.471Z,27.20
2018-03-01T19:07:54.034Z,29.43
2018-03-01T19:10:21.559Z,42.07
2018-03-01T19:12:49.610Z,38.30
2018-03-01T19:15:17.188Z,49.37
2018-03-01T19:17:45.234Z,29.20
2018-03-01T19:20:12.743Z,38.93
2018-03-01T19:22:40.422Z,40.37
2018-03-01T19:25:07.940Z,44.73
2018-03-01T19:27:35.896Z,31.87
2018-03-01T19:30:03.527Z,37.73
2018-03-01T19:32:31.478Z,30.53
2018-03-01T19:34:59.096Z,34.03
2018-03-01T19:37:27.060Z,33.70
2018-03-01T19:39:54.984Z,41.47
2018-03-01T19:42:22.522Z,31.77
2018-03-01T19:44:50.040Z,44.07
2018-03-01T19:47:17.603Z,29.77
2018-03-01T19:49:45.613Z,42.07
2018-03-01T19:52:13.151Z,33.50
2018-03-01T19:54:40.724Z,33.50
2018-03-01T19:57:08.268Z,26.97
2018-03-01T19:59:36.432Z,46.77
2018-03-01T20:02:03.988Z,27.53
2018-03-01T20:04:31.941Z,40.93
2018-03-01T20:06:59.880Z,45.90
2018-03-01T20:09:27.414Z,34.70
2018-03-01T20:11:54.957Z,33.73
2018-03-01T20:14:22.543Z,48.03
2018-03-01T20:16:50.112Z,30.50
2018-03-01T20:19:17.628Z,40.70
2018-03-01T20:21:45.596Z,33.10
2018-03-01T20:24:13.139Z,47.53
2018-03-01T20:26:41.052Z,31.40
2018-03-01T20:29:08.586Z,48.23
2018-03-01T20:31:36.099Z,26.60
2018-03-01T20:34:03.635Z,55.57
2018-03-01T20:36:31.155Z,45.87
2018-03-01T20:38:58.696Z,29.33
2018-03-01T20:41:26.623Z,44.67
2018-03-01T20:43:54.183Z,30.57
2018-03-01T20:46:21.705Z,50.03
2018-03-01T20:48:49.248Z,35.47
2018-03-01T20:51:17.218Z,55.23
2018-03-01T20:53:44.776Z,32.90
2018-03-01T20:56:12.355Z,46.30
2018-03-01T20:58:39.912Z,33.53
2018-03-01T21:01:07.427Z,53.57
2018-03-01T21:03:35.372Z,28.93
2018-03-01T21:06:02.896Z,46.20
2018-03-01T21:08:30.441Z,26.87
2018-03-01T21:10:57.953Z,41.53
2018-03-01T21:13:25.472Z,40.47
2018-03-01T21:15:53.000Z,48.03
2018-03-01T21:18:20.585Z,34.57
2018-03-01T21:20:48.123Z,44.17
2018-03-01T21:23:16.023Z,32.70
2018-03-01T21:25:43.568Z,47.80
2018-03-01T21:28:11.089Z,44.63
2018-03-01T21:30:39.016Z,49.77
2018-03-01T21:33:06.535Z,45.93
2018-03-01T21:35:34.465Z,47.67
2018-03-01T21:38:02.145Z,33.27
2018-03-01T21:40:30.072Z,45.47
2018-03-01T21:42:57.612Z,31.13
2018-03-01T21:45:25.143Z,52.47
2018-03-01T21:47:52.663Z,51.30
2018-03-01T21:50:20.215Z,35.57
2018-03-01T21:52:47.727Z,49.53
2018-03-01T21:55:15.276Z,36.33
2018-03-01T21:57:42.811Z,50.20
2018-03-01T22:00:10.737Z,33.00
2018-03-01T22:02:38.279Z,40.93
2018-03-01T22:05:05.815Z,47.40
2018-03-01T22:07:33.379Z,43.70
2018-03-01T22:10:00.923Z,33.43
2018-03-01T22:12:28.837Z,46.73
2018-03-01T22:14:56.373Z,38.87
2018-03-01T22:17:23.934Z,43.17
2018-03-01T22:19:51.463Z,34.67
2018-03-01T22:22:19.372Z,45.33
2018-03-01T22:24:46.907Z,45.13
2018-03-01T22:27:14.492Z,34.07
2018-03-01T22:29:42.039Z,56.30
2018-03-01T22:32:09.543Z,42.57
2018-03-01T22:34:37.073Z,47.83
2018-03-01T22:37:04.601Z,50.83
2018-03-01T22:39:32.140Z,44.03
2018-03-01T22:42:00.051Z,49.40
2018-03-01T22:44:27.708Z,34.83
2018-03-01T22:46:55.231Z,44.67
2018-03-01T22:49:22.764Z,46.23
2018-03-01T22:51:50.373Z,51.80
2018-03-01T22:54:18.247Z,37.63
2018-03-01T22:56:45.807Z,53.83
2018-03-01T22:59:13.320Z,36.40
2018-03-01T23:01:41.248Z,62.30
2018-03-01T23:04:08.772Z,54.37
2018-03-01T23:06:36.299Z,29.53
2018-03-01T23:09:04.223Z,52.87
2018-03-01T23:11:31.764Z,31.77
2018-03-01T23:13:59.372Z,44.27
2018-03-01T23:16:26.900Z,36.60
2018-03-01T23:18:54.429Z,37.10
2018-03-01T23:21:21.976Z,32.47
2018-03-01T23:23:49.496Z,36.30
2018-03-01T23:26:17.036Z,31.47
2018-03-01T23:28:44.568Z,40.80
2018-03-01T23:31:12.104Z,44.73
2018-03-01T23:33:39.621Z,52.17
2018-03-01T23:36:07.153Z,46.63
2018-03-01T23:38:34.664Z,35.10
2018-03-01T23:41:02.601Z,36.90
2018-03-01T23:43:30.211Z,32.90
2018-03-01T23:45:57.756Z,51.03
2018-03-01T23:48:25.663Z,53.70
2018-03-01T23:50:53.220Z,47.73
2018-03-01T23:53:20.760Z,41.43
2018-03-01T23:55:48.310Z,47.17
2018-03-01T23:58:15.832Z,58.27
